Time;durP1;ratioP1;P1;durP2;ratioP2;P2;SDS_P1;SDS_P2;PMS_P1;PMS_P2;Temp;Humidity;BMP_temperature;BMP_pressure;BME280_temperature;BME280_humidity;BME280_pressure;Samples;Min_cycle;Max_cycle;Signal;HPM_P1;HPM_P2
2024/02/11 00:00:32;;;;;;;4.65;2.97;;;10.60;99.90;;;;;;4898089;29;20053;-77
2024/02/11 00:02:59;;;;;;;4.60;2.83;;;10.60;99.90;;;;;;4879420;29;20060;-77
2024/02/11 00:05:27;;;;;;;4.85;2.83;;;10.60;99.90;;;;;;4877851;29;20048;-77
2024/02/11 00:07:55;;;;;;;5.05;3.20;;;10.60;99.90;;;;;;4882459;29;20147;-77
2024/02/11 00:10:23;;;;;;;5.80;3.45;;;10.60;99.90;;;;;;4897881;29;20040;-77
2024/02/11 00:12:50;;;;;;;6.70;3.45;;;10.60;99.90;;;;;;4882377;29;20406;-77
2024/02/11 00:15:17;;;;;;;5.20;3.20;;;10.60;99.90;;;;;;4882246;29;20083;-77
2024/02/11 00:17:46;;;;;;;5.47;2.55;;;10.60;99.90;;;;;;4882200;29;20058;-77
2024/02/11 00:20:15;;;;;;;5.90;3.17;;;10.60;99.90;;;;;;4897967;29;20508;-77
2024/02/11 00:22:48;;;;;;;4.22;2.40;;;10.60;99.90;;;;;;4898863;29;20083;-77
2024/02/11 00:25:16;;;;;;;4.32;2.92;;;10.60;99.90;;;;;;4882230;29;20219;-77
2024/02/11 00:27:50;;;;;;;4.25;2.80;;;10.60;99.90;;;;;;4879277;29;20044;-77
2024/02/11 00:30:17;;;;;;;5.55;3.33;;;10.60;99.90;;;;;;4879505;29;20049;-77
2024/02/11 00:32:46;;;;;;;4.85;2.67;;;10.60;99.90;;;;;;4874802;29;20053;-77
2024/02/11 00:35:18;;;;;;;5.80;3.47;;;10.60;99.90;;;;;;4879083;29;20483;-77
2024/02/11 00:37:45;;;;;;;;;;;10.70;99.90;;;;;;4859946;29;20065;-77
2024/02/11 00:40:12;;;;;;;4.00;2.38;;;10.60;99.90;;;;;;4897361;29;19975;-77
2024/02/11 00:42:39;;;;;;;3.10;1.85;;;10.60;99.90;;;;;;4878663;29;20064;-77
2024/02/11 00:45:07;;;;;;;4.95;2.45;;;10.60;99.90;;;;;;4877732;29;20466;-77
2024/02/11 00:47:35;;;;;;;5.25;2.67;;;10.60;99.90;;;;;;4878606;29;20459;-77
2024/02/11 00:50:03;;;;;;;4.50;2.85;;;10.60;99.90;;;;;;4861376;29;20040;-77
2024/02/11 00:52:30;;;;;;;5.45;2.70;;;10.60;99.90;;;;;;4878602;29;20140;-77
2024/02/11 00:54:57;;;;;;;4.85;2.65;;;10.60;99.90;;;;;;4874838;29;20068;-77
2024/02/11 00:57:24;;;;;;;4.65;2.90;;;10.60;99.90;;;;;;4881455;29;20055;-77
2024/02/11 00:59:52;;;;;;;5.57;3.45;;;10.60;99.90;;;;;;4897125;29;20056;-77
2024/02/11 01:02:19;;;;;;;4.80;2.75;;;10.60;99.90;;;;;;4881460;29;20060;-77
2024/02/11 01:04:45;;;;;;;4.38;2.58;;;10.60;99.90;;;;;;4878475;29;20083;-77
2024/02/11 01:07:13;;;;;;;4.03;2.25;;;10.60;99.90;;;;;;4871419;29;20053;-77
2024/02/11 01:09:40;;;;;;;4.05;2.42;;;10.60;99.90;;;;;;4881535;29;20052;-77
2024/02/11 01:12:07;;;;;;;5.53;2.80;;;10.60;99.90;;;;;;4896909;29;20143;-77
2024/02/11 01:14:34;;;;;;;3.95;2.47;;;10.60;99.90;;;;;;4881371;29;20072;-77
2024/02/11 01:17:01;;;;;;;3.72;2.35;;;10.60;99.90;;;;;;4881326;29;20053;-77
2024/02/11 01:19:28;;;;;;;4.05;2.28;;;10.60;99.90;;;;;;4866033;29;20052;-77
2024/02/11 01:21:55;;;;;;;4.63;2.67;;;10.60;99.90;;;;;;4880837;29;20446;-77
2024/02/11 01:24:22;;;;;;;4.60;2.45;;;10.60;99.90;;;;;;4881385;29;20387;-77
2024/02/11 01:26:49;;;;;;;4.88;2.85;;;10.50;99.90;;;;;;4863189;29;20048;-77
2024/02/11 01:29:17;;;;;;;4.75;2.20;;;10.50;99.90;;;;;;4896582;29;20139;-77
2024/02/11 01:31:46;;;;;;;5.53;2.92;;;10.50;99.90;;;;;;4881348;29;20040;-77
2024/02/11 01:34:15;;;;;;;4.55;3.13;;;10.50;99.90;;;;;;4896505;29;20052;-77
2024/02/11 01:36:45;;;;;;;5.45;3.42;;;10.50;99.90;;;;;;4881184;29;20088;-77
2024/02/11 01:39:16;;;;;;;5.47;3.10;;;10.50;99.90;;;;;;4881433;29;20056;-77
2024/02/11 01:41:43;;;;;;;4.50;2.40;;;10.50;99.90;;;;;;4863875;29;20049;-77
2024/02/11 01:44:10;;;;;;;5.30;3.00;;;10.50;99.90;;;;;;4881103;29;20045;-77
2024/02/11 01:46:38;;;;;;;6.25;3.97;;;10.40;99.90;;;;;;4897693;29;20037;-77
2024/02/11 01:49:06;;;;;;;4.85;3.10;;;10.40;99.90;;;;;;4865966;29;20033;-77
2024/02/11 01:51:34;;;;;;;4.45;3.00;;;10.40;99.90;;;;;;4880978;29;20079;-77
2024/02/11 01:54:03;;;;;;;4.90;3.60;;;10.40;99.90;;;;;;4881043;29;20147;-77
2024/02/11 01:56:32;;;;;;;4.45;2.83;;;10.40;99.90;;;;;;4880931;29;20049;-77
2024/02/11 01:58:59;;;;;;;4.57;3.00;;;10.40;99.90;;;;;;4880995;29;20053;-77
2024/02/11 02:01:27;;;;;;;4.30;2.78;;;10.40;99.90;;;;;;4878145;29;20060;-77
2024/02/11 02:03:55;;;;;;;5.68;3.25;;;10.40;99.90;;;;;;4880237;29;20049;-77
2024/02/11 02:06:23;;;;;;;4.68;3.08;;;10.40;99.90;;;;;;4885696;29;20049;-77
2024/02/11 02:08:52;;;;;;;4.82;2.88;;;10.40;99.90;;;;;;4880854;29;20045;-77
2024/02/11 02:11:20;;;;;;;4.80;3.08;;;10.40;99.90;;;;;;4881323;29;20115;-77
2024/02/11 02:13:48;;;;;;;6.20;4.20;;;10.40;99.90;;;;;;4890580;29;20055;-77
2024/02/11 02:16:15;;;;;;;5.38;3.20;;;10.40;99.90;;;;;;4880745;29;20113;-77
2024/02/11 02:18:46;;;;;;;6.13;3.80;;;10.30;99.90;;;;;;4862190;29;20053;-77
2024/02/11 02:21:13;;;;;;;6.07;4.03;;;10.30;99.90;;;;;;4876708;29;20118;-77
2024/02/11 02:23:40;;;;;;;5.80;3.70;;;10.30;99.90;;;;;;4865152;29;20040;-77
2024/02/11 02:26:07;;;;;;;6.03;3.60;;;10.30;99.90;;;;;;4880446;29;20056;-77
2024/02/11 02:28:35;;;;;;;6.78;4.30;;;10.30;99.90;;;;;;4880916;29;20438;-77
2024/02/11 02:31:05;;;;;;;5.80;3.63;;;10.30;99.90;;;;;;4880768;29;20515;-77
2024/02/11 02:33:34;;;;;;;5.57;3.30;;;10.30;99.90;;;;;;4896989;29;20049;-77
2024/02/11 02:36:01;;;;;;;5.25;2.85;;;10.30;99.90;;;;;;4880708;29;20041;-77
2024/02/11 02:38:28;;;;;;;5.03;3.30;;;10.30;99.90;;;;;;4883040;29;20087;-76
2024/02/11 02:40:55;;;;;;;4.13;2.38;;;10.30;99.90;;;;;;4884129;29;20394;-77
2024/02/11 02:43:25;;;;;;;4.25;2.65;;;10.30;99.90;;;;;;4899558;29;20222;-77
2024/02/11 02:45:52;;;;;;;5.22;3.05;;;10.30;99.90;;;;;;4884155;29;20055;-77
2024/02/11 02:48:19;;;;;;;4.78;2.95;;;10.30;99.90;;;;;;4883864;29;20049;-77
2024/02/11 02:50:46;;;;;;;5.70;3.28;;;10.30;99.90;;;;;;4871436;29;20059;-77
2024/02/11 02:53:13;;;;;;;4.63;2.70;;;10.30;99.90;;;;;;4880795;29;20085;-77
2024/02/11 02:55:40;;;;;;;5.05;2.85;;;10.30;99.90;;;;;;4884852;29;20045;-77
2024/02/11 02:58:13;;;;;;;5.05;3.35;;;10.30;99.90;;;;;;4884142;29;20060;-77
2024/02/11 03:00:42;;;;;;;4.47;2.83;;;10.40;99.90;;;;;;4884337;29;20128;-77
2024/02/11 03:03:09;;;;;;;5.65;3.10;;;10.30;99.90;;;;;;4883614;29;20041;-77
2024/02/11 03:05:40;;;;;;;5.03;3.20;;;10.30;99.90;;;;;;4899211;29;20048;-77
2024/02/11 03:08:09;;;;;;;;;;;10.30;99.90;;;;;;4899552;29;20128;-77
2024/02/11 03:10:37;;;;;;;4.50;2.85;;;10.30;99.90;;;;;;4883866;29;19923;-77
2024/02/11 03:13:05;;;;;;;4.45;2.60;;;10.30;99.90;;;;;;4883298;29;20521;-77
2024/02/11 03:15:32;;;;;;;4.97;2.92;;;10.20;99.90;;;;;;4883060;29;20052;-77
2024/02/11 03:18:01;;;;;;;4.30;2.67;;;10.20;99.90;;;;;;4883495;29;20401;-77
2024/02/11 03:20:29;;;;;;;5.63;2.95;;;10.30;99.90;;;;;;4868192;29;20052;-77
2024/02/11 03:22:56;;;;;;;5.45;2.95;;;10.30;99.90;;;;;;4883377;29;20037;-77
2024/02/11 03:25:23;;;;;;;4.63;2.65;;;10.30;99.90;;;;;;4883419;29;20044;-77
2024/02/11 03:27:54;;;;;;;5.25;3.22;;;10.30;99.90;;;;;;4883267;29;20112;-77
2024/02/11 03:30:22;;;;;;;4.50;2.83;;;10.20;99.90;;;;;;4868375;29;20508;-77
2024/02/11 03:32:50;;;;;;;4.03;2.67;;;10.20;99.90;;;;;;4880116;29;20117;-77
2024/02/11 03:35:17;;;;;;;4.30;2.35;;;10.20;99.90;;;;;;4878716;29;20105;-77
2024/02/11 03:37:44;;;;;;;4.43;2.47;;;10.20;99.90;;;;;;4879732;29;20068;-77
2024/02/11 03:40:16;;;;;;;5.40;3.28;;;10.20;99.90;;;;;;4886074;29;20096;-77
2024/02/11 03:42:44;;;;;;;5.55;3.38;;;10.20;99.90;;;;;;4898341;29;20067;-77
2024/02/11 03:45:11;;;;;;;4.05;2.50;;;10.20;99.90;;;;;;4882746;29;20040;-76
2024/02/11 03:47:39;;;;;;;5.13;3.03;;;10.20;99.90;;;;;;4883073;29;20044;-77
2024/02/11 03:50:13;;;;;;;5.10;3.38;;;10.10;99.90;;;;;;4882817;29;20093;-77
2024/02/11 03:52:41;;;;;;;4.60;2.53;;;10.10;99.90;;;;;;4898298;29;20052;-77
2024/02/11 03:55:10;;;;;;;4.53;3.10;;;10.20;99.90;;;;;;4898219;29;20052;-77
2024/02/11 03:57:38;;;;;;;3.50;2.40;;;10.20;99.90;;;;;;4882914;29;20059;-77
2024/02/11 04:00:25;;;;;;;4.32;2.70;;;10.20;99.90;;;;;;4882569;29;20458;-77
2024/02/11 04:02:55;;;;;;;4.22;2.47;;;10.20;99.90;;;;;;4873371;29;20047;-77
2024/02/11 04:05:26;;;;;;;4.05;2.67;;;10.20;99.90;;;;;;4882894;29;20040;-77
2024/02/11 04:07:53;;;;;;;4.95;2.33;;;10.20;99.90;;;;;;4867838;29;20056;-77
2024/02/11 04:10:23;;;;;;;4.43;2.85;;;10.20;99.90;;;;;;4864116;29;20049;-77
2024/02/11 04:12:54;;;;;;;5.57;3.03;;;10.20;99.90;;;;;;4897714;29;20063;-77
2024/02/11 04:15:25;;;;;;;5.20;3.08;;;10.10;99.90;;;;;;4882343;29;20048;-77
2024/02/11 04:17:56;;;;;;;4.65;2.97;;;10.10;99.90;;;;;;4882732;29;20049;-77
2024/02/11 04:20:24;;;;;;;5.13;2.80;;;10.10;99.90;;;;;;4882974;29;20565;-77
2024/02/11 04:22:58;;;;;;;4.50;3.05;;;10.10;99.90;;;;;;4897662;29;20048;-77
2024/02/11 04:25:29;;;;;;;4.53;2.70;;;10.10;99.90;;;;;;4882427;29;20057;-77
2024/02/11 04:27:56;;;;;;;3.75;2.50;;;10.00;99.90;;;;;;4882233;29;20465;-77
2024/02/11 04:30:27;;;;;;;4.18;2.65;;;10.10;99.90;;;;;;4882087;29;20049;-77
2024/02/11 04:32:55;;;;;;;3.58;2.20;;;10.10;99.90;;;;;;4897571;29;20076;-77
2024/02/11 04:35:24;;;;;;;6.03;3.22;;;10.10;99.90;;;;;;4898769;29;20068;-77
2024/02/11 04:37:55;;;;;;;5.03;2.92;;;10.10;99.90;;;;;;4881917;29;20064;-77
2024/02/11 04:40:26;;;;;;;5.25;3.53;;;10.10;99.90;;;;;;4882266;29;20139;-77
2024/02/11 04:42:56;;;;;;;4.65;2.92;;;10.00;99.90;;;;;;4882630;29;20127;-77
2024/02/11 04:45:25;;;;;;;4.28;2.42;;;10.00;99.90;;;;;;4882146;29;20062;-85
2024/02/11 04:47:59;;;;;;;4.22;2.55;;;10.00;99.90;;;;;;4897334;29;20119;-84
2024/02/11 04:50:28;;;;;;;4.40;2.65;;;10.00;99.90;;;;;;4898509;29;20048;-85
2024/02/11 04:52:58;;;;;;;3.88;2.28;;;10.00;99.90;;;;;;4882221;29;20090;-85
2024/02/11 04:55:29;;;;;;;4.70;1.95;;;9.90;99.90;;;;;;4897125;29;20147;-85
2024/02/11 04:57:58;;;;;;;4.40;2.58;;;9.90;99.90;;;;;;4881450;29;20059;-85
2024/02/11 05:00:29;;;;;;;3.95;2.70;;;9.90;99.90;;;;;;4897433;29;20064;-85
2024/02/11 05:02:58;;;;;;;5.07;2.88;;;9.90;99.90;;;;;;4897006;29;20052;-85
2024/02/11 05:05:30;;;;;;;5.38;3.17;;;9.90;99.90;;;;;;4897323;29;20044;-85
2024/02/11 05:08:03;;;;;;;5.10;2.90;;;9.90;99.90;;;;;;4881703;29;20131;-85
2024/02/11 05:10:33;;;;;;;4.45;2.67;;;9.90;99.90;;;;;;4898341;29;20045;-85
2024/02/11 05:13:04;;;;;;;4.72;2.83;;;9.90;99.90;;;;;;4897427;29;20048;-85
2024/02/11 05:15:37;;;;;;;3.97;2.20;;;10.00;99.90;;;;;;4897153;29;20057;-85
2024/02/11 05:18:05;;;;;;;5.10;3.10;;;10.00;99.90;;;;;;4872833;29;20056;-85
2024/02/11 05:20:32;;;;;;;5.28;3.13;;;10.00;99.90;;;;;;4896759;29;20037;-84
2024/02/11 05:22:59;;;;;;;4.50;2.58;;;10.00;99.90;;;;;;4896743;29;20044;-85
2024/02/11 05:25:27;;;;;;;4.68;3.00;;;10.00;99.90;;;;;;4881558;29;20045;-84
2024/02/11 05:28:00;;;;;;;5.63;2.75;;;10.00;99.90;;;;;;4862808;29;20109;-85
2024/02/11 05:30:34;;;;;;;6.10;3.10;;;10.10;99.90;;;;;;4885812;29;20045;-84
2024/02/11 05:33:06;;;;;;;4.78;3.30;;;10.10;99.90;;;;;;4891305;29;20045;-85
2024/02/11 05:35:39;;;;;;;5.30;2.88;;;10.10;99.90;;;;;;4878726;29;20056;-85
2024/02/11 05:38:08;;;;;;;5.47;2.92;;;10.10;99.90;;;;;;4882051;29;20056;-84
2024/02/11 05:40:37;;;;;;;5.30;3.30;;;10.10;99.90;;;;;;4878311;29;20159;-84
2024/02/11 05:43:04;;;;;;;5.25;2.95;;;10.10;99.90;;;;;;4877846;29;20128;-84
2024/02/11 05:45:31;;;;;;;6.53;3.33;;;10.10;99.90;;;;;;4877956;29;20093;-85
2024/02/11 05:47:58;;;;;;;4.10;2.78;;;10.20;99.90;;;;;;4865898;29;20059;-84
2024/02/11 05:50:28;;;;;;;5.43;2.97;;;10.10;99.90;;;;;;4881062;29;20104;-84
2024/02/11 05:52:55;;;;;;;4.70;3.28;;;10.10;99.90;;;;;;4881490;29;20087;-85
2024/02/11 05:55:22;;;;;;;4.82;3.47;;;10.20;99.90;;;;;;4865671;29;20056;-85
2024/02/11 05:57:51;;;;;;;5.75;3.63;;;10.20;99.90;;;;;;4896562;29;20071;-84
2024/02/11 06:00:29;;;;;;;6.88;3.75;;;10.20;99.90;;;;;;4896475;29;20151;-84
2024/02/11 06:02:57;;;;;;;4.20;2.80;;;10.20;99.90;;;;;;4896484;29;20049;-84
2024/02/11 06:05:25;;;;;;;5.53;3.53;;;10.20;99.90;;;;;;4881138;29;20040;-84
2024/02/11 06:07:55;;;;;;;5.35;3.30;;;10.20;99.90;;;;;;4897713;29;20044;-83
2024/02/11 06:10:25;;;;;;;5.97;3.33;;;10.20;99.90;;;;;;4885029;29;20048;-84
2024/02/11 06:12:53;;;;;;;5.35;3.60;;;10.20;99.90;;;;;;4900144;29;20413;-84
2024/02/11 06:15:21;;;;;;;5.80;3.35;;;10.20;99.90;;;;;;4900041;29;20084;-84
2024/02/11 06:17:50;;;;;;;5.00;3.17;;;10.20;99.90;;;;;;4869274;29;20052;-84
2024/02/11 06:20:18;;;;;;;5.07;3.05;;;10.30;99.90;;;;;;4884618;29;20041;-85
2024/02/11 06:22:52;;;;;;;5.38;3.63;;;10.20;99.90;;;;;;4884525;29;20044;-84
2024/02/11 06:25:20;;;;;;;6.40;3.83;;;10.30;99.90;;;;;;4899792;29;20152;-84
2024/02/11 06:27:48;;;;;;;7.15;4.93;;;10.30;99.90;;;;;;4899969;29;20045;-84
2024/02/11 06:30:18;;;;;;;6.50;4.43;;;10.20;99.90;;;;;;4900969;29;20083;-84
2024/02/11 06:32:47;;;;;;;6.47;4.15;;;10.20;99.90;;;;;;4884542;29;20383;-85
2024/02/11 06:35:14;;;;;;;6.63;3.95;;;10.30;99.90;;;;;;4884394;29;20055;-84
2024/02/11 06:37:43;;;;;;;7.38;4.35;;;10.30;99.90;;;;;;4899538;29;20080;-84
2024/02/11 06:40:20;;;;;;;7.15;4.80;;;10.20;99.90;;;;;;4884055;29;20573;-85
2024/02/11 06:42:53;;;;;;;8.55;5.82;;;10.30;99.90;;;;;;4899566;29;20041;-84
2024/02/11 06:45:21;;;;;;;11.52;7.50;;;10.20;99.90;;;;;;4884715;29;20100;-84
2024/02/11 06:47:48;;;;;;;15.63;10.65;;;10.20;99.90;;;;;;4883935;29;20047;-84
2024/02/11 06:50:18;;;;;;;15.32;10.30;;;10.20;99.90;;;;;;4899767;29;20100;-84
2024/02/11 06:52:50;;;;;;;15.90;8.93;;;10.10;99.90;;;;;;4899561;29;20155;-85
2024/02/11 06:55:19;;;;;;;11.60;7.97;;;10.00;99.90;;;;;;4899500;29;20525;-85
2024/02/11 06:57:46;;;;;;;12.02;8.18;;;9.90;99.90;;;;;;4900547;29;20041;-84
2024/02/11 07:00:14;;;;;;;11.77;7.43;;;9.80;99.90;;;;;;4880644;29;20059;-84
2024/02/11 07:02:47;;;;;;;11.23;6.75;;;9.70;99.90;;;;;;4896845;29;20060;-83
2024/02/11 07:05:15;;;;;;;10.50;6.72;;;9.60;99.90;;;;;;4899010;29;20068;-87
2024/02/11 07:07:44;;;;;;;10.85;6.47;;;9.50;99.90;;;;;;4869086;29;20045;-85
2024/02/11 07:10:13;;;;;;;12.27;7.18;;;9.40;99.90;;;;;;4883721;29;20072;-83
2024/02/11 07:12:42;;;;;;;12.80;7.22;;;9.40;99.90;;;;;;4898818;29;20067;-82
2024/02/11 07:15:11;;;;;;;13.77;7.55;;;9.30;99.90;;;;;;4883653;29;20056;-83
2024/02/11 07:17:41;;;;;;;13.30;7.85;;;9.20;99.90;;;;;;4883140;29;20048;-82
2024/02/11 07:20:11;;;;;;;18.15;9.50;;;9.20;99.90;;;;;;4898084;29;20413;-83
2024/02/11 07:22:42;;;;;;;16.17;9.02;;;9.10;99.90;;;;;;4898850;29;20077;-83
2024/02/11 07:25:09;;;;;;;17.13;9.32;;;9.10;99.90;;;;;;4898771;29;20465;-83
2024/02/11 07:27:36;;;;;;;16.83;9.95;;;9.00;99.90;;;;;;4883131;29;20052;-83
2024/02/11 07:30:04;;;;;;;19.15;11.07;;;9.00;99.90;;;;;;4898767;29;20044;-82
2024/02/11 07:32:31;;;;;;;22.52;13.30;;;8.90;99.90;;;;;;4852551;29;20048;-82
2024/02/11 07:34:59;;;;;;;21.30;12.52;;;8.90;99.90;;;;;;4867944;29;20520;-82
2024/02/11 07:37:27;;;;;;;17.35;10.35;;;8.80;99.90;;;;;;4867643;29;20450;-81
2024/02/11 07:39:54;;;;;;;19.50;11.82;;;8.80;99.90;;;;;;4883017;29;20060;-81
2024/02/11 07:42:22;;;;;;;21.92;12.25;;;8.80;99.90;;;;;;4882904;29;20425;-81
2024/02/11 07:44:53;;;;;;;21.48;11.18;;;8.70;99.90;;;;;;4879769;29;20048;-81
2024/02/11 07:47:21;;;;;;;24.38;13.05;;;8.70;99.90;;;;;;4885139;29;20045;-81
2024/02/11 07:49:49;;;;;;;22.80;13.15;;;8.70;99.90;;;;;;4864438;29;20043;-81
2024/02/11 07:52:17;;;;;;;25.45;13.85;;;8.70;99.90;;;;;;4881512;29;20049;-81
2024/02/11 07:54:48;;;;;;;23.00;13.75;;;8.70;99.90;;;;;;4882914;29;20052;-81
2024/02/11 07:57:17;;;;;;;27.95;12.20;;;8.70;99.90;;;;;;4898413;29;20057;-82
2024/02/11 07:59:45;;;;;;;25.52;14.52;;;8.70;99.90;;;;;;4852929;29;20048;-82
2024/02/11 08:02:13;;;;;;;26.52;12.40;;;8.60;99.90;;;;;;4882743;29;20057;-82
2024/02/11 08:04:40;;;;;;;19.50;11.52;;;8.60;99.90;;;;;;4882565;29;20052;-82
2024/02/11 08:07:07;;;;;;;20.45;10.93;;;8.60;99.90;;;;;;4882783;29;20160;-81
2024/02/11 08:09:34;;;;;;;20.17;10.48;;;8.60;99.90;;;;;;4867293;29;20092;-82
2024/02/11 08:12:02;;;;;;;20.27;9.60;;;8.70;99.90;;;;;;4882469;29;20116;-82
2024/02/11 08:14:30;;;;;;;21.00;10.10;;;8.70;99.90;;;;;;4879536;29;20048;-81
2024/02/11 08:16:57;;;;;;;24.65;12.18;;;8.60;99.90;;;;;;4890204;29;20130;-83
2024/02/11 08:19:25;;;;;;;18.42;9.15;;;8.60;99.90;;;;;;4879122;29;20155;-84
2024/02/11 08:21:52;;;;;;;17.48;8.50;;;8.60;99.90;;;;;;4869493;29;20056;-82
2024/02/11 08:24:20;;;;;;;20.88;9.60;;;8.60;99.90;;;;;;4865999;29;20045;-81
2024/02/11 08:26:47;;;;;;;18.40;8.65;;;8.50;99.90;;;;;;4897755;29;20060;-83
2024/02/11 08:29:15;;;;;;;20.45;7.97;;;8.50;99.90;;;;;;4882239;29;20040;-82
2024/02/11 08:31:44;;;;;;;19.65;7.60;;;8.50;99.90;;;;;;4881185;29;20094;-82
2024/02/11 08:34:11;;;;;;;21.00;8.60;;;8.50;99.90;;;;;;4897516;29;20053;-81
2024/02/11 08:36:39;;;;;;;16.05;7.88;;;8.50;99.90;;;;;;4881999;29;20112;-81
2024/02/11 08:39:06;;;;;;;16.50;7.55;;;8.50;99.90;;;;;;4881809;29;20084;-81
2024/02/11 08:41:33;;;;;;;16.33;6.25;;;8.50;99.90;;;;;;4897203;29;20134;-81
2024/02/11 08:44:00;;;;;;;17.70;7.13;;;8.50;99.90;;;;;;4897260;29;20141;-81
2024/02/11 08:46:28;;;;;;;14.50;6.82;;;8.60;99.90;;;;;;4878878;29;20394;-81
2024/02/11 08:48:54;;;;;;;15.25;6.22;;;8.60;99.90;;;;;;4896291;29;20076;-81
2024/02/11 08:51:22;;;;;;;17.17;6.57;;;8.60;99.90;;;;;;4897323;29;20097;-81
2024/02/11 08:53:50;;;;;;;17.35;7.55;;;8.60;99.90;;;;;;4881836;29;20056;-81
2024/02/11 08:56:17;;;;;;;14.57;6.45;;;8.60;99.90;;;;;;4882029;29;20109;-81
2024/02/11 08:58:45;;;;;;;11.73;5.75;;;8.60;99.90;;;;;;4897216;29;20119;-81
2024/02/11 09:01:12;;;;;;;16.48;6.22;;;8.60;99.90;;;;;;4881556;29;20055;-81
2024/02/11 09:03:39;;;;;;;17.67;8.02;;;8.70;99.90;;;;;;4891580;29;20051;-82
2024/02/11 09:06:06;;;;;;;17.73;8.02;;;8.70;99.90;;;;;;4878216;29;20476;-81
2024/02/11 09:08:33;;;;;;;16.98;7.20;;;8.70;99.90;;;;;;4890042;29;20044;-81
2024/02/11 09:11:06;;;;;;;17.30;8.63;;;8.80;99.90;;;;;;4896922;29;20553;-81
2024/02/11 09:13:37;;;;;;;18.88;8.52;;;8.90;99.90;;;;;;4898040;29;20045;-81
2024/02/11 09:16:06;;;;;;;19.92;9.20;;;8.80;99.90;;;;;;4866795;29;20443;-81
2024/02/11 09:18:33;;;;;;;17.33;7.50;;;8.90;99.90;;;;;;4896697;29;20040;-81
2024/02/11 09:21:01;;;;;;;19.63;10.10;;;9.00;99.90;;;;;;4878558;29;20059;-81
2024/02/11 09:23:28;;;;;;;20.73;10.73;;;9.00;99.90;;;;;;4868406;29;20471;-81
2024/02/11 09:25:55;;;;;;;19.25;10.35;;;9.00;99.90;;;;;;4848959;29;20429;-82
2024/02/11 09:28:24;;;;;;;22.73;11.38;;;9.00;99.90;;;;;;4896703;29;20131;-82
2024/02/11 09:30:51;;;;;;;21.08;10.93;;;9.10;99.90;;;;;;4865898;29;20509;-82
2024/02/11 09:33:18;;;;;;;19.50;9.57;;;9.10;99.90;;;;;;4865904;29;20060;-81
2024/02/11 09:35:46;;;;;;;23.40;9.68;;;9.10;99.90;;;;;;4896419;29;20139;-82
2024/02/11 09:38:15;;;;;;;21.20;10.40;;;9.20;99.90;;;;;;4880825;29;20524;-82
2024/02/11 09:40:44;;;;;;;21.35;10.45;;;9.30;99.90;;;;;;4877636;29;20149;-82
2024/02/11 09:43:12;;;;;;;16.92;9.43;;;9.40;99.90;;;;;;4877362;29;20084;-82
2024/02/11 09:45:40;;;;;;;24.60;10.80;;;9.40;99.90;;;;;;4887242;29;20051;-82
2024/02/11 09:48:09;;;;;;;21.10;12.35;;;9.50;99.90;;;;;;4900296;29;20055;-82
2024/02/11 09:50:38;;;;;;;24.25;12.30;;;9.50;99.90;;;;;;4900540;29;20048;-82
2024/02/11 09:53:07;;;;;;;20.58;10.68;;;9.50;99.90;;;;;;4901552;29;20041;-82
2024/02/11 09:55:37;;;;;;;19.27;11.27;;;9.50;99.90;;;;;;4900205;29;20149;-81
2024/02/11 09:58:04;;;;;;;17.23;9.68;;;9.50;99.90;;;;;;4900021;29;20533;-82
2024/02/11 10:00:31;;;;;;;16.65;9.07;;;9.60;99.90;;;;;;4900264;29;20100;-81
2024/02/11 10:03:02;;;;;;;17.85;8.65;;;9.70;99.90;;;;;;4900247;29;20044;-80
2024/02/11 10:05:36;;;;;;;18.00;9.30;;;9.70;99.90;;;;;;4899883;29;20064;-84
2024/02/11 10:08:13;;;;;;;19.55;9.85;;;9.70;99.90;;;;;;4900153;29;20503;-80
2024/02/11 10:10:44;;;;;;;15.80;9.52;;;9.70;99.90;;;;;;4899900;29;20041;-81
2024/02/11 10:13:19;;;;;;;14.65;8.15;;;9.70;99.90;;;;;;4884884;29;20565;-82
2024/02/11 10:15:48;;;;;;;14.65;8.75;;;9.70;99.90;;;;;;4899906;29;20528;-81
2024/02/11 10:18:18;;;;;;;21.67;9.70;;;9.80;99.90;;;;;;4899923;29;20108;-81
2024/02/11 10:20:47;;;;;;;16.15;8.68;;;9.80;99.90;;;;;;4900077;29;20045;-81
2024/02/11 10:23:16;;;;;;;21.63;10.38;;;9.80;99.90;;;;;;4899901;29;20052;-81
2024/02/11 10:25:45;;;;;;;17.95;9.10;;;9.80;99.90;;;;;;4899562;29;20485;-81
2024/02/11 10:28:12;;;;;;;18.70;9.52;;;9.80;99.90;;;;;;4899585;29;20049;-81
2024/02/11 10:30:39;;;;;;;15.95;8.00;;;9.80;99.90;;;;;;4884253;29;20076;-82
2024/02/11 10:33:07;;;;;;;16.63;9.43;;;9.80;99.90;;;;;;4884190;29;20041;-82
2024/02/11 10:35:35;;;;;;;18.83;10.10;;;9.90;99.90;;;;;;4869004;29;20056;-83
2024/02/11 10:38:06;;;;;;;18.25;9.43;;;9.90;99.90;;;;;;4883890;29;20052;-83
2024/02/11 10:40:38;;;;;;;21.95;10.52;;;10.00;99.90;;;;;;4880887;29;20517;-82
2024/02/11 10:43:05;;;;;;;18.92;10.02;;;10.00;99.90;;;;;;4889723;29;20486;-81
2024/02/11 10:45:34;;;;;;;16.58;9.50;;;10.00;99.90;;;;;;4880656;29;20045;-82
2024/02/11 10:48:03;;;;;;;22.90;12.52;;;10.10;99.90;;;;;;4876155;29;20056;-81
2024/02/11 10:50:32;;;;;;;19.05;10.38;;;10.10;99.90;;;;;;4899292;29;20048;-81
2024/02/11 10:53:03;;;;;;;18.98;10.60;;;10.10;99.90;;;;;;4884045;29;20147;-87
2024/02/11 10:55:40;;;;;;;22.10;10.68;;;10.10;99.90;;;;;;4899290;29;20103;-82
2024/02/11 10:58:10;;;;;;;23.38;12.45;;;10.10;99.90;;;;;;4880282;29;20581;-82
2024/02/11 11:00:39;;;;;;;18.45;10.55;;;10.00;99.90;;;;;;4881592;29;20071;-82
2024/02/11 11:03:09;;;;;;;23.25;11.45;;;10.00;99.90;;;;;;4883662;29;20506;-82
2024/02/11 11:05:40;;;;;;;18.52;9.27;;;9.90;99.90;;;;;;4900884;29;20478;-82
2024/02/11 11:08:12;;;;;;;19.53;10.70;;;9.90;99.90;;;;;;4884716;29;20052;-88
2024/02/11 11:10:43;;;;;;;20.10;10.40;;;9.90;99.90;;;;;;4900634;29;20056;-89
2024/02/11 11:13:10;;;;;;;19.27;10.00;;;9.90;99.90;;;;;;4884966;29;20409;-88
2024/02/11 11:16:21;;;;;;;18.50;9.98;;;9.90;99.90;;;;;;4883982;29;20059;-90
2024/02/11 11:18:55;;;;;;;20.77;9.65;;;9.90;99.90;;;;;;4886384;29;20052;-88
2024/02/11 11:21:22;;;;;;;18.52;8.30;;;9.90;99.90;;;;;;4867387;29;20049;-87
2024/02/11 11:23:49;;;;;;;18.10;9.15;;;9.90;99.90;;;;;;4884494;29;20051;-88
2024/02/11 11:26:21;;;;;;;15.23;8.02;;;9.90;99.90;;;;;;4883999;29;20136;-87
2024/02/11 11:28:49;;;;;;;13.63;8.20;;;9.90;99.90;;;;;;4899965;29;20045;-90
2024/02/11 11:31:23;;;;;;;17.55;9.73;;;9.90;99.90;;;;;;4884781;29;20044;-90
2024/02/11 11:33:50;;;;;;;20.90;9.15;;;10.00;99.90;;;;;;4883091;29;20143;-88
2024/02/11 11:36:26;;;;;;;18.65;9.13;;;9.90;99.90;;;;;;4869088;29;20478;-88
2024/02/11 11:39:03;;;;;;;13.50;8.02;;;9.90;99.90;;;;;;4883871;29;20053;-87
2024/02/11 11:41:33;;;;;;;13.93;7.70;;;9.90;99.90;;;;;;4872177;29;20057;-83
2024/02/11 11:44:02;;;;;;;13.70;7.05;;;9.80;99.90;;;;;;4900073;29;20046;-86
2024/02/11 11:46:30;;;;;;;14.88;6.88;;;9.80;99.90;;;;;;4866208;29;20067;-86
2024/02/11 11:48:57;;;;;;;16.10;6.63;;;9.90;99.90;;;;;;4850783;29;20045;-86
2024/02/11 11:51:26;;;;;;;15.90;7.38;;;9.90;99.90;;;;;;4835557;29;20144;-87
2024/02/11 11:53:59;;;;;;;15.10;7.47;;;9.90;99.90;;;;;;4866767;29;20052;-88
2024/02/11 11:56:26;;;;;;;14.32;7.70;;;9.90;99.90;;;;;;4864953;29;20053;-81
2024/02/11 11:59:03;;;;;;;11.80;6.80;;;9.90;99.90;;;;;;4883724;29;20052;-87
2024/02/11 12:01:30;;;;;;;14.02;6.50;;;9.90;99.90;;;;;;4899698;29;20517;-86
2024/02/11 12:03:57;;;;;;;19.33;7.05;;;9.90;99.90;;;;;;4884771;29;20088;-89
2024/02/11 12:06:26;;;;;;;13.23;7.03;;;10.00;99.90;;;;;;4883580;29;20143;-87
2024/02/11 12:08:54;;;;;;;13.43;6.90;;;9.90;99.90;;;;;;4884901;29;20055;-88
2024/02/11 12:11:21;;;;;;;13.02;5.78;;;10.00;99.90;;;;;;4884325;29;20461;-87
2024/02/11 12:13:50;;;;;;;10.02;5.25;;;10.00;99.90;;;;;;4865630;29;20104;-90
2024/02/11 12:16:20;;;;;;;12.13;6.13;;;10.00;99.90;;;;;;4881478;29;20044;-87
2024/02/11 12:18:47;;;;;;;16.73;6.93;;;10.00;99.90;;;;;;4892871;29;20104;-89
2024/02/11 12:21:15;;;;;;;13.25;7.05;;;10.00;99.90;;;;;;4899807;29;20131;-87
2024/02/11 12:23:42;;;;;;;15.23;7.25;;;10.00;99.90;;;;;;4884366;29;20462;-84
2024/02/11 12:26:09;;;;;;;13.57;6.65;;;10.00;99.90;;;;;;4899149;29;20051;-87
2024/02/11 12:28:39;;;;;;;13.75;6.75;;;9.90;99.90;;;;;;4868514;29;20477;-86
2024/02/11 12:31:14;;;;;;;9.93;5.65;;;9.90;99.90;;;;;;4899208;29;20466;-87
2024/02/11 12:33:41;;;;;;;11.48;6.03;;;9.90;99.90;;;;;;4883662;29;20414;-86
2024/02/11 12:36:14;;;;;;;12.45;5.38;;;10.00;99.90;;;;;;4899168;29;20080;-88
2024/02/11 12:38:45;;;;;;;10.68;6.03;;;10.00;99.90;;;;;;4867918;29;20138;-86
2024/02/11 12:41:14;;;;;;;11.00;5.57;;;10.00;99.90;;;;;;4883768;29;20066;-87
2024/02/11 12:43:42;;;;;;;12.23;5.25;;;10.00;99.90;;;;;;4883660;29;20051;-89
2024/02/11 12:46:10;;;;;;;11.65;7.43;;;10.00;99.90;;;;;;4883288;29;20036;-86
2024/02/11 12:48:38;;;;;;;16.58;6.57;;;10.00;99.90;;;;;;4897872;29;20048;-83
2024/02/11 12:51:05;;;;;;;10.35;5.90;;;10.00;99.90;;;;;;4898039;29;20041;-82
2024/02/11 12:53:35;;;;;;;12.13;5.88;;;10.00;99.90;;;;;;4868880;29;20074;-82